sensor_id;sensor_type;location;lat;lon;timestamp;temperature;humidity
75931;DHT22;64609;47.052;15.462;2023-02-22T00:01:32;11.70;52.30
75931;DHT22;64609;47.052;15.462;2023-02-22T00:04:11;11.70;52.40
75931;DHT22;64609;47.052;15.462;2023-02-22T00:06:38;11.60;52.50
75931;DHT22;64609;47.052;15.462;2023-02-22T00:09:04;11.60;52.50
75931;DHT22;64609;47.052;15.462;2023-02-22T00:11:31;11.60;52.70
75931;DHT22;64609;47.052;15.462;2023-02-22T00:13:56;11.50;52.80
75931;DHT22;64609;47.052;15.462;2023-02-22T00:16:23;11.50;52.90
75931;DHT22;64609;47.052;15.462;2023-02-22T00:18:49;11.40;53.00
75931;DHT22;64609;47.052;15.462;2023-02-22T00:21:16;11.40;53.10
75931;DHT22;64609;47.052;15.462;2023-02-22T00:23:44;11.30;53.20
75931;DHT22;64609;47.052;15.462;2023-02-22T00:26:17;11.30;53.40
75931;DHT22;64609;47.052;15.462;2023-02-22T00:28:53;11.30;53.40
75931;DHT22;64609;47.052;15.462;2023-02-22T00:31:19;11.30;53.70
75931;DHT22;64609;47.052;15.462;2023-02-22T00:33:45;11.30;53.70
75931;DHT22;64609;47.052;15.462;2023-02-22T00:36:12;11.30;53.90
75931;DHT22;64609;47.052;15.462;2023-02-22T00:38:38;11.30;54.00
75931;DHT22;64609;47.052;15.462;2023-02-22T00:41:04;11.30;54.00
75931;DHT22;64609;47.052;15.462;2023-02-22T00:43:30;11.20;54.00
75931;DHT22;64609;47.052;15.462;2023-02-22T00:45:56;11.20;54.00
75931;DHT22;64609;47.052;15.462;2023-02-22T00:48:22;11.20;54.20
75931;DHT22;64609;47.052;15.462;2023-02-22T00:50:48;11.20;54.20
75931;DHT22;64609;47.052;15.462;2023-02-22T00:53:14;11.20;54.30
75931;DHT22;64609;47.052;15.462;2023-02-22T00:55:40;11.10;54.30
75931;DHT22;64609;47.052;15.462;2023-02-22T00:58:06;11.10;54.30
75931;DHT22;64609;47.052;15.462;2023-02-22T01:00:34;11.10;54.40
75931;DHT22;64609;47.052;15.462;2023-02-22T01:03:02;11.10;54.60
75931;DHT22;64609;47.052;15.462;2023-02-22T01:05:29;11.10;55.00
75931;DHT22;64609;47.052;15.462;2023-02-22T01:07:56;11.20;54.70
75931;DHT22;64609;47.052;15.462;2023-02-22T01:10:24;11.20;54.60
75931;DHT22;64609;47.052;15.462;2023-02-22T01:12:50;11.20;54.60
75931;DHT22;64609;47.052;15.462;2023-02-22T01:15:21;11.10;54.60
75931;DHT22;64609;47.052;15.462;2023-02-22T01:17:47;11.10;55.00
75931;DHT22;64609;47.052;15.462;2023-02-22T01:20:13;11.20;55.10
75931;DHT22;64609;47.052;15.462;2023-02-22T01:22:40;11.20;54.90
75931;DHT22;64609;47.052;15.462;2023-02-22T01:25:07;11.20;55.30
75931;DHT22;64609;47.052;15.462;2023-02-22T01:27:34;11.20;55.10
75931;DHT22;64609;47.052;15.462;2023-02-22T01:30:00;11.10;55.00
75931;DHT22;64609;47.052;15.462;2023-02-22T01:32:26;11.10;55.00
75931;DHT22;64609;47.052;15.462;2023-02-22T01:34:52;11.10;55.10
75931;DHT22;64609;47.052;15.462;2023-02-22T01:37:18;11.00;55.20
75931;DHT22;64609;47.052;15.462;2023-02-22T01:39:44;11.00;55.50
75931;DHT22;64609;47.052;15.462;2023-02-22T01:42:10;11.00;55.60
75931;DHT22;64609;47.052;15.462;2023-02-22T01:44:37;11.00;55.60
75931;DHT22;64609;47.052;15.462;2023-02-22T01:47:05;11.10;55.60
75931;DHT22;64609;47.052;15.462;2023-02-22T01:52:06;11.00;55.50
75931;DHT22;64609;47.052;15.462;2023-02-22T01:54:59;11.00;56.10
75931;DHT22;64609;47.052;15.462;2023-02-22T01:57:34;11.00;55.70
75931;DHT22;64609;47.052;15.462;2023-02-22T02:00:10;10.90;55.70
75931;DHT22;64609;47.052;15.462;2023-02-22T02:02:41;10.90;55.80
75931;DHT22;64609;47.052;15.462;2023-02-22T02:05:08;10.90;55.80
75931;DHT22;64609;47.052;15.462;2023-02-22T02:07:35;10.80;55.90
75931;DHT22;64609;47.052;15.462;2023-02-22T02:10:09;10.70;56.00
75931;DHT22;64609;47.052;15.462;2023-02-22T02:12:43;10.80;56.20
75931;DHT22;64609;47.052;15.462;2023-02-22T02:17:41;10.70;56.30
75931;DHT22;64609;47.052;15.462;2023-02-22T02:20:23;10.70;56.30
75931;DHT22;64609;47.052;15.462;2023-02-22T02:36:38;10.60;57.50
75931;DHT22;64609;47.052;15.462;2023-02-22T02:41:50;10.60;56.70
75931;DHT22;64609;47.052;15.462;2023-02-22T02:44:27;10.60;56.60
75931;DHT22;64609;47.052;15.462;2023-02-22T02:47:09;10.60;56.90
75931;DHT22;64609;47.052;15.462;2023-02-22T02:49:45;10.60;56.80
75931;DHT22;64609;47.052;15.462;2023-02-22T02:52:14;10.60;57.10
75931;DHT22;64609;47.052;15.462;2023-02-22T02:54:41;10.60;56.90
75931;DHT22;64609;47.052;15.462;2023-02-22T02:57:07;10.50;57.10
75931;DHT22;64609;47.052;15.462;2023-02-22T02:59:35;10.50;57.20
75931;DHT22;64609;47.052;15.462;2023-02-22T03:13:55;10.50;58.30
75931;DHT22;64609;47.052;15.462;2023-02-22T03:19:08;10.50;58.00
75931;DHT22;64609;47.052;15.462;2023-02-22T03:21:44;10.50;58.30
75931;DHT22;64609;47.052;15.462;2023-02-22T03:24:36;10.60;57.90
75931;DHT22;64609;47.052;15.462;2023-02-22T03:27:17;10.60;58.20
75931;DHT22;64609;47.052;15.462;2023-02-22T03:29:48;10.60;57.80
75931;DHT22;64609;47.052;15.462;2023-02-22T03:32:20;10.50;57.80
75931;DHT22;64609;47.052;15.462;2023-02-22T03:34:52;10.50;58.00
75931;DHT22;64609;47.052;15.462;2023-02-22T03:37:24;10.50;58.20
75931;DHT22;64609;47.052;15.462;2023-02-22T03:39:53;10.50;57.90
75931;DHT22;64609;47.052;15.462;2023-02-22T03:42:32;10.40;58.00
75931;DHT22;64609;47.052;15.462;2023-02-22T03:45:01;10.40;58.10
75931;DHT22;64609;47.052;15.462;2023-02-22T03:47:37;10.30;58.30
75931;DHT22;64609;47.052;15.462;2023-02-22T03:50:17;10.30;58.10
75931;DHT22;64609;47.052;15.462;2023-02-22T03:52:45;10.30;58.10
75931;DHT22;64609;47.052;15.462;2023-02-22T03:55:13;10.30;58.30
75931;DHT22;64609;47.052;15.462;2023-02-22T03:57:45;10.20;58.40
75931;DHT22;64609;47.052;15.462;2023-02-22T04:00:13;10.20;59.60
75931;DHT22;64609;47.052;15.462;2023-02-22T04:02:42;10.20;58.50
75931;DHT22;64609;47.052;15.462;2023-02-22T04:05:08;10.20;58.70
75931;DHT22;64609;47.052;15.462;2023-02-22T04:07:33;10.20;58.90
75931;DHT22;64609;47.052;15.462;2023-02-22T04:09:59;10.20;59.10
75931;DHT22;64609;47.052;15.462;2023-02-22T04:12:27;10.20;59.10
75931;DHT22;64609;47.052;15.462;2023-02-22T04:14:52;10.20;59.10
75931;DHT22;64609;47.052;15.462;2023-02-22T04:17:18;10.20;58.90
75931;DHT22;64609;47.052;15.462;2023-02-22T04:19:44;10.20;59.00
75931;DHT22;64609;47.052;15.462;2023-02-22T04:22:10;10.10;59.40
75931;DHT22;64609;47.052;15.462;2023-02-22T04:24:36;10.10;59.40
75931;DHT22;64609;47.052;15.462;2023-02-22T04:27:02;10.10;59.70
75931;DHT22;64609;47.052;15.462;2023-02-22T04:29:28;10.20;59.60
75931;DHT22;64609;47.052;15.462;2023-02-22T04:31:54;10.20;59.50
75931;DHT22;64609;47.052;15.462;2023-02-22T04:34:20;10.10;59.70
75931;DHT22;64609;47.052;15.462;2023-02-22T04:36:46;10.20;60.10
75931;DHT22;64609;47.052;15.462;2023-02-22T04:39:11;10.20;60.00
75931;DHT22;64609;47.052;15.462;2023-02-22T04:41:37;10.20;60.00
75931;DHT22;64609;47.052;15.462;2023-02-22T04:44:03;10.20;59.70
75931;DHT22;64609;47.052;15.462;2023-02-22T04:46:28;10.20;60.00
75931;DHT22;64609;47.052;15.462;2023-02-22T04:48:55;10.20;60.00
75931;DHT22;64609;47.052;15.462;2023-02-22T04:51:22;10.20;60.00
75931;DHT22;64609;47.052;15.462;2023-02-22T04:53:48;10.20;59.90
75931;DHT22;64609;47.052;15.462;2023-02-22T04:56:16;10.20;60.00
75931;DHT22;64609;47.052;15.462;2023-02-22T04:58:42;10.20;60.00
75931;DHT22;64609;47.052;15.462;2023-02-22T05:01:08;10.20;60.30
75931;DHT22;64609;47.052;15.462;2023-02-22T05:03:36;10.20;60.20
75931;DHT22;64609;47.052;15.462;2023-02-22T05:06:02;10.20;60.40
75931;DHT22;64609;47.052;15.462;2023-02-22T05:08:28;10.20;60.40
75931;DHT22;64609;47.052;15.462;2023-02-22T05:10:54;10.20;60.70
75931;DHT22;64609;47.052;15.462;2023-02-22T05:13:19;10.20;60.50
75931;DHT22;64609;47.052;15.462;2023-02-22T05:15:45;10.20;60.40
75931;DHT22;64609;47.052;15.462;2023-02-22T05:18:12;10.10;60.40
75931;DHT22;64609;47.052;15.462;2023-02-22T05:20:38;10.10;60.60
75931;DHT22;64609;47.052;15.462;2023-02-22T05:23:04;10.10;60.60
75931;DHT22;64609;47.052;15.462;2023-02-22T05:25:30;10.10;60.60
75931;DHT22;64609;47.052;15.462;2023-02-22T05:27:58;10.00;60.50
75931;DHT22;64609;47.052;15.462;2023-02-22T05:30:31;10.00;60.60
75931;DHT22;64609;47.052;15.462;2023-02-22T05:32:57;9.90;60.60
75931;DHT22;64609;47.052;15.462;2023-02-22T05:35:24;9.90;60.70
75931;DHT22;64609;47.052;15.462;2023-02-22T05:37:50;9.90;60.70
75931;DHT22;64609;47.052;15.462;2023-02-22T05:40:21;9.80;60.80
75931;DHT22;64609;47.052;15.462;2023-02-22T05:42:49;9.80;60.90
75931;DHT22;64609;47.052;15.462;2023-02-22T05:45:17;9.80;61.10
75931;DHT22;64609;47.052;15.462;2023-02-22T05:47:43;9.80;61.00
75931;DHT22;64609;47.052;15.462;2023-02-22T05:50:09;9.80;61.10
75931;DHT22;64609;47.052;15.462;2023-02-22T05:52:35;9.80;61.10
75931;DHT22;64609;47.052;15.462;2023-02-22T05:55:01;9.80;61.20
75931;DHT22;64609;47.052;15.462;2023-02-22T05:57:27;9.80;61.20
75931;DHT22;64609;47.052;15.462;2023-02-22T05:59:52;9.80;61.20
75931;DHT22;64609;47.052;15.462;2023-02-22T06:02:18;9.80;61.40
75931;DHT22;64609;47.052;15.462;2023-02-22T06:04:44;9.70;61.20
75931;DHT22;64609;47.052;15.462;2023-02-22T06:07:11;9.80;61.40
75931;DHT22;64609;47.052;15.462;2023-02-22T06:09:36;9.80;61.50
75931;DHT22;64609;47.052;15.462;2023-02-22T06:12:02;9.80;61.50
75931;DHT22;64609;47.052;15.462;2023-02-22T06:14:28;9.80;61.40
75931;DHT22;64609;47.052;15.462;2023-02-22T06:16:55;9.80;61.70
75931;DHT22;64609;47.052;15.462;2023-02-22T06:19:21;9.90;61.70
75931;DHT22;64609;47.052;15.462;2023-02-22T06:21:54;9.80;61.60
75931;DHT22;64609;47.052;15.462;2023-02-22T06:24:21;9.80;61.70
75931;DHT22;64609;47.052;15.462;2023-02-22T06:26:54;9.70;61.70
75931;DHT22;64609;47.052;15.462;2023-02-22T06:29:20;9.60;62.10
75931;DHT22;64609;47.052;15.462;2023-02-22T06:31:45;9.60;62.20
75931;DHT22;64609;47.052;15.462;2023-02-22T06:34:11;9.50;62.00
75931;DHT22;64609;47.052;15.462;2023-02-22T06:36:37;9.50;62.10
75931;DHT22;64609;47.052;15.462;2023-02-22T06:39:02;9.50;62.10
75931;DHT22;64609;47.052;15.462;2023-02-22T06:41:28;9.50;61.90
75931;DHT22;64609;47.052;15.462;2023-02-22T06:43:54;9.60;61.90
75931;DHT22;64609;47.052;15.462;2023-02-22T06:46:19;9.60;61.80
75931;DHT22;64609;47.052;15.462;2023-02-22T06:48:46;9.50;61.40
75931;DHT22;64609;47.052;15.462;2023-02-22T06:51:12;9.60;61.10
75931;DHT22;64609;47.052;15.462;2023-02-22T06:53:37;9.70;60.60
75931;DHT22;64609;47.052;15.462;2023-02-22T06:56:03;9.60;60.40
75931;DHT22;64609;47.052;15.462;2023-02-22T06:58:29;9.70;60.50
75931;DHT22;64609;47.052;15.462;2023-02-22T07:00:54;9.70;60.60
75931;DHT22;64609;47.052;15.462;2023-02-22T07:03:20;9.70;60.60
75931;DHT22;64609;47.052;15.462;2023-02-22T07:05:46;9.80;60.50
75931;DHT22;64609;47.052;15.462;2023-02-22T07:08:12;9.80;60.50
75931;DHT22;64609;47.052;15.462;2023-02-22T07:10:38;9.90;60.60
75931;DHT22;64609;47.052;15.462;2023-02-22T07:13:05;10.00;60.50
75931;DHT22;64609;47.052;15.462;2023-02-22T07:15:32;10.10;60.20
75931;DHT22;64609;47.052;15.462;2023-02-22T07:17:58;10.10;60.00
75931;DHT22;64609;47.052;15.462;2023-02-22T07:20:28;10.20;60.10
75931;DHT22;64609;47.052;15.462;2023-02-22T07:22:54;10.30;60.20
75931;DHT22;64609;47.052;15.462;2023-02-22T07:25:20;10.40;60.10
75931;DHT22;64609;47.052;15.462;2023-02-22T07:27:47;10.60;60.20
75931;DHT22;64609;47.052;15.462;2023-02-22T07:30:19;10.80;60.00
75931;DHT22;64609;47.052;15.462;2023-02-22T07:32:45;10.90;59.80
75931;DHT22;64609;47.052;15.462;2023-02-22T07:35:33;11.00;59.90
75931;DHT22;64609;47.052;15.462;2023-02-22T07:38:03;11.20;59.40
75931;DHT22;64609;47.052;15.462;2023-02-22T07:40:30;11.40;59.60
75931;DHT22;64609;47.052;15.462;2023-02-22T07:42:57;11.50;59.10
75931;DHT22;64609;47.052;15.462;2023-02-22T07:45:29;11.70;58.60
75931;DHT22;64609;47.052;15.462;2023-02-22T07:47:56;11.90;58.50
75931;DHT22;64609;47.052;15.462;2023-02-22T07:50:23;12.10;58.20
75931;DHT22;64609;47.052;15.462;2023-02-22T07:52:52;12.20;57.90
75931;DHT22;64609;47.052;15.462;2023-02-22T07:55:20;12.40;57.70
75931;DHT22;64609;47.052;15.462;2023-02-22T07:57:48;12.60;57.50
75931;DHT22;64609;47.052;15.462;2023-02-22T08:00:20;12.90;56.80
75931;DHT22;64609;47.052;15.462;2023-02-22T08:02:46;13.00;55.90
75931;DHT22;64609;47.052;15.462;2023-02-22T08:05:13;13.10;55.60
75931;DHT22;64609;47.052;15.462;2023-02-22T08:07:39;13.30;55.50
75931;DHT22;64609;47.052;15.462;2023-02-22T08:10:06;13.40;54.10
75931;DHT22;64609;47.052;15.462;2023-02-22T08:12:36;13.50;54.50
75931;DHT22;64609;47.052;15.462;2023-02-22T08:15:03;13.70;54.30
75931;DHT22;64609;47.052;15.462;2023-02-22T08:17:29;13.90;53.30
75931;DHT22;64609;47.052;15.462;2023-02-22T08:19:55;14.10;53.20
75931;DHT22;64609;47.052;15.462;2023-02-22T08:22:21;14.30;52.20
75931;DHT22;64609;47.052;15.462;2023-02-22T08:24:46;14.50;52.20
75931;DHT22;64609;47.052;15.462;2023-02-22T08:27:12;14.70;50.90
75931;DHT22;64609;47.052;15.462;2023-02-22T08:29:38;14.90;50.90
75931;DHT22;64609;47.052;15.462;2023-02-22T08:32:03;15.30;50.20
75931;DHT22;64609;47.052;15.462;2023-02-22T08:34:29;15.50;50.10
75931;DHT22;64609;47.052;15.462;2023-02-22T08:36:55;15.80;48.50
75931;DHT22;64609;47.052;15.462;2023-02-22T08:39:20;16.20;48.40
75931;DHT22;64609;47.052;15.462;2023-02-22T08:41:46;16.60;48.20
75931;DHT22;64609;47.052;15.462;2023-02-22T08:44:12;17.00;47.30
75931;DHT22;64609;47.052;15.462;2023-02-22T08:46:38;17.40;46.40
75931;DHT22;64609;47.052;15.462;2023-02-22T08:49:04;17.70;45.70
75931;DHT22;64609;47.052;15.462;2023-02-22T08:51:35;17.90;45.50
75931;DHT22;64609;47.052;15.462;2023-02-22T08:54:02;18.00;44.90
75931;DHT22;64609;47.052;15.462;2023-02-22T08:56:28;18.20;44.70
75931;DHT22;64609;47.052;15.462;2023-02-22T08:58:55;18.30;44.10
75931;DHT22;64609;47.052;15.462;2023-02-22T09:01:22;18.40;44.40
75931;DHT22;64609;47.052;15.462;2023-02-22T09:03:49;18.60;44.20
75931;DHT22;64609;47.052;15.462;2023-02-22T09:06:16;18.90;43.80
75931;DHT22;64609;47.052;15.462;2023-02-22T09:08:42;19.10;42.90
75931;DHT22;64609;47.052;15.462;2023-02-22T09:11:07;19.20;43.10
75931;DHT22;64609;47.052;15.462;2023-02-22T09:13:33;19.40;42.90
75931;DHT22;64609;47.052;15.462;2023-02-22T09:15:59;19.60;42.70
75931;DHT22;64609;47.052;15.462;2023-02-22T09:18:26;19.80;42.30
75931;DHT22;64609;47.052;15.462;2023-02-22T09:20:52;19.90;41.90
75931;DHT22;64609;47.052;15.462;2023-02-22T09:23:19;20.10;41.70
75931;DHT22;64609;47.052;15.462;2023-02-22T09:25:49;20.40;41.40
75931;DHT22;64609;47.052;15.462;2023-02-22T09:28:15;20.60;40.70
75931;DHT22;64609;47.052;15.462;2023-02-22T09:30:41;20.70;40.30
75931;DHT22;64609;47.052;15.462;2023-02-22T09:33:11;20.90;40.40
75931;DHT22;64609;47.052;15.462;2023-02-22T09:35:38;21.00;39.70
75931;DHT22;64609;47.052;15.462;2023-02-22T09:38:07;21.00;40.00
75931;DHT22;64609;47.052;15.462;2023-02-22T09:40:36;21.00;40.20
75931;DHT22;64609;47.052;15.462;2023-02-22T09:51:24;20.90;40.00
75931;DHT22;64609;47.052;15.462;2023-02-22T09:53:54;21.10;40.00
75931;DHT22;64609;47.052;15.462;2023-02-22T09:56:23;21.20;39.60
75931;DHT22;64609;47.052;15.462;2023-02-22T09:58:53;21.10;39.00
75931;DHT22;64609;47.052;15.462;2023-02-22T10:01:31;20.70;39.90
75931;DHT22;64609;47.052;15.462;2023-02-22T10:06:38;20.90;40.00
75931;DHT22;64609;47.052;15.462;2023-02-22T10:09:08;21.00;40.00
75931;DHT22;64609;47.052;15.462;2023-02-22T10:22:34;21.40;39.60
75931;DHT22;64609;47.052;15.462;2023-02-22T10:27:54;21.30;39.70
75931;DHT22;64609;47.052;15.462;2023-02-22T10:30:30;21.40;38.90
75931;DHT22;64609;47.052;15.462;2023-02-22T10:33:46;21.40;39.50
75931;DHT22;64609;47.052;15.462;2023-02-22T10:36:04;21.70;39.20
75931;DHT22;64609;47.052;15.462;2023-02-22T10:38:32;21.50;38.70
75931;DHT22;64609;47.052;15.462;2023-02-22T10:41:19;21.30;39.70
75931;DHT22;64609;47.052;15.462;2023-02-22T10:43:45;21.30;39.50
75931;DHT22;64609;47.052;15.462;2023-02-22T10:46:14;21.30;39.80
75931;DHT22;64609;47.052;15.462;2023-02-22T10:48:42;21.40;39.90
75931;DHT22;64609;47.052;15.462;2023-02-22T10:51:09;21.50;39.70
75931;DHT22;64609;47.052;15.462;2023-02-22T10:53:36;21.60;39.60
75931;DHT22;64609;47.052;15.462;2023-02-22T10:58:50;21.60;40.60
75931;DHT22;64609;47.052;15.462;2023-02-22T11:06:26;21.30;39.80
75931;DHT22;64609;47.052;15.462;2023-02-22T11:09:06;21.40;39.90
75931;DHT22;64609;47.052;15.462;2023-02-22T11:11:35;21.30;39.40
75931;DHT22;64609;47.052;15.462;2023-02-22T11:14:01;21.20;39.60
75931;DHT22;64609;47.052;15.462;2023-02-22T11:21:40;21.10;39.20
75931;DHT22;64609;47.052;15.462;2023-02-22T11:24:09;20.90;39.70
75931;DHT22;64609;47.052;15.462;2023-02-22T11:26:48;20.60;40.30
75931;DHT22;64609;47.052;15.462;2023-02-22T11:31:44;20.40;40.60
75931;DHT22;64609;47.052;15.462;2023-02-22T11:36:56;20.90;40.40
75931;DHT22;64609;47.052;15.462;2023-02-22T11:39:39;21.10;40.60
75931;DHT22;64609;47.052;15.462;2023-02-22T11:42:25;21.40;39.70
75931;DHT22;64609;47.052;15.462;2023-02-22T11:45:23;21.50;39.50
75931;DHT22;64609;47.052;15.462;2023-02-22T11:47:50;21.60;39.00
75931;DHT22;64609;47.052;15.462;2023-02-22T11:50:50;21.50;39.20
75931;DHT22;64609;47.052;15.462;2023-02-22T11:56:21;21.30;39.30
75931;DHT22;64609;47.052;15.462;2023-02-22T11:59:18;21.50;39.60
75931;DHT22;64609;47.052;15.462;2023-02-22T12:04:34;21.80;39.00
75931;DHT22;64609;47.052;15.462;2023-02-22T12:15:41;21.10;39.80
75931;DHT22;64609;47.052;15.462;2023-02-22T12:18:23;21.40;39.50
75931;DHT22;64609;47.052;15.462;2023-02-22T12:20:56;21.30;39.10
75931;DHT22;64609;47.052;15.462;2023-02-22T12:26:38;21.50;38.80
75931;DHT22;64609;47.052;15.462;2023-02-22T12:34:56;21.60;38.40
75931;DHT22;64609;47.052;15.462;2023-02-22T12:37:51;21.60;38.40
75931;DHT22;64609;47.052;15.462;2023-02-22T12:40:38;21.70;38.40
75931;DHT22;64609;47.052;15.462;2023-02-22T12:43:35;21.50;37.90
75931;DHT22;64609;47.052;15.462;2023-02-22T12:46:17;21.50;38.40
75931;DHT22;64609;47.052;15.462;2023-02-22T12:55:00;21.10;38.10
75931;DHT22;64609;47.052;15.462;2023-02-22T13:03:01;21.10;38.50
75931;DHT22;64609;47.052;15.462;2023-02-22T13:05:35;21.20;38.40
75931;DHT22;64609;47.052;15.462;2023-02-22T13:22:08;20.70;38.10
75931;DHT22;64609;47.052;15.462;2023-02-22T13:25:01;20.50;38.90
75931;DHT22;64609;47.052;15.462;2023-02-22T13:27:34;20.60;38.90
75931;DHT22;64609;47.052;15.462;2023-02-22T13:30:05;20.70;38.40
75931;DHT22;64609;47.052;15.462;2023-02-22T13:46:04;20.40;38.60
75931;DHT22;64609;47.052;15.462;2023-02-22T13:57:03;20.80;38.70
75931;DHT22;64609;47.052;15.462;2023-02-22T13:59:34;20.80;38.40
75931;DHT22;64609;47.052;15.462;2023-02-22T14:02:02;20.80;38.20
75931;DHT22;64609;47.052;15.462;2023-02-22T14:04:37;20.70;38.00
75931;DHT22;64609;47.052;15.462;2023-02-22T14:09:54;20.60;38.40
75931;DHT22;64609;47.052;15.462;2023-02-22T14:15:16;20.30;38.10
75931;DHT22;64609;47.052;15.462;2023-02-22T14:17:46;20.30;38.60
75931;DHT22;64609;47.052;15.462;2023-02-22T14:22:42;20.30;38.80
75931;DHT22;64609;47.052;15.462;2023-02-22T14:25:47;20.30;39.20
75931;DHT22;64609;47.052;15.462;2023-02-22T14:28:36;20.20;39.00
75931;DHT22;64609;47.052;15.462;2023-02-22T14:31:54;20.10;39.40
75931;DHT22;64609;47.052;15.462;2023-02-22T14:34:17;20.00;39.70
75931;DHT22;64609;47.052;15.462;2023-02-22T14:36:47;20.00;39.90
75931;DHT22;64609;47.052;15.462;2023-02-22T14:42:09;19.90;39.90
75931;DHT22;64609;47.052;15.462;2023-02-22T14:44:47;19.90;39.90
75931;DHT22;64609;47.052;15.462;2023-02-22T14:47:20;19.90;39.50
75931;DHT22;64609;47.052;15.462;2023-02-22T14:49:50;19.80;39.80
75931;DHT22;64609;47.052;15.462;2023-02-22T14:52:26;19.90;39.90
75931;DHT22;64609;47.052;15.462;2023-02-22T14:55:12;20.00;39.90
75931;DHT22;64609;47.052;15.462;2023-02-22T15:00:28;19.90;39.90
75931;DHT22;64609;47.052;15.462;2023-02-22T15:03:00;19.80;39.80
75931;DHT22;64609;47.052;15.462;2023-02-22T15:05:33;19.80;40.40
75931;DHT22;64609;47.052;15.462;2023-02-22T15:08:02;19.70;40.50
75931;DHT22;64609;47.052;15.462;2023-02-22T15:10:41;19.60;40.80
75931;DHT22;64609;47.052;15.462;2023-02-22T15:13:25;19.40;41.20
75931;DHT22;64609;47.052;15.462;2023-02-22T15:16:02;19.40;41.60
75931;DHT22;64609;47.052;15.462;2023-02-22T15:18:45;19.40;41.60
75931;DHT22;64609;47.052;15.462;2023-02-22T15:21:13;19.30;41.50
75931;DHT22;64609;47.052;15.462;2023-02-22T15:23:47;19.20;41.60
75931;DHT22;64609;47.052;15.462;2023-02-22T15:26:32;19.20;41.90
75931;DHT22;64609;47.052;15.462;2023-02-22T15:29:17;19.20;42.00
75931;DHT22;64609;47.052;15.462;2023-02-22T15:31:43;19.20;42.00
75931;DHT22;64609;47.052;15.462;2023-02-22T15:36:44;19.20;42.20
75931;DHT22;64609;47.052;15.462;2023-02-22T15:39:25;19.10;42.10
75931;DHT22;64609;47.052;15.462;2023-02-22T15:44:26;19.10;42.70
75931;DHT22;64609;47.052;15.462;2023-02-22T15:46:53;19.10;42.50
75931;DHT22;64609;47.052;15.462;2023-02-22T15:49:22;19.00;42.60
75931;DHT22;64609;47.052;15.462;2023-02-22T15:52:00;19.00;42.60
75931;DHT22;64609;47.052;15.462;2023-02-22T15:54:26;19.10;43.00
75931;DHT22;64609;47.052;15.462;2023-02-22T15:56:53;18.90;43.10
75931;DHT22;64609;47.052;15.462;2023-02-22T15:59:23;18.70;43.50
75931;DHT22;64609;47.052;15.462;2023-02-22T16:01:54;18.60;43.80
75931;DHT22;64609;47.052;15.462;2023-02-22T16:04:26;18.50;44.10
75931;DHT22;64609;47.052;15.462;2023-02-22T16:07:05;18.50;44.20
75931;DHT22;64609;47.052;15.462;2023-02-22T16:09:32;18.40;44.40
75931;DHT22;64609;47.052;15.462;2023-02-22T16:14:44;18.30;44.80
75931;DHT22;64609;47.052;15.462;2023-02-22T16:22:29;18.10;45.30
75931;DHT22;64609;47.052;15.462;2023-02-22T16:25:31;18.10;45.50
75931;DHT22;64609;47.052;15.462;2023-02-22T16:28:02;18.00;45.90
75931;DHT22;64609;47.052;15.462;2023-02-22T16:30:34;17.90;46.00
75931;DHT22;64609;47.052;15.462;2023-02-22T16:33:03;17.80;46.40
75931;DHT22;64609;47.052;15.462;2023-02-22T16:35:38;17.80;46.60
75931;DHT22;64609;47.052;15.462;2023-02-22T16:38:08;17.70;47.00
75931;DHT22;64609;47.052;15.462;2023-02-22T16:40:51;17.70;47.30
75931;DHT22;64609;47.052;15.462;2023-02-22T16:43:25;17.60;47.40
75931;DHT22;64609;47.052;15.462;2023-02-22T16:45:51;17.50;47.50
75931;DHT22;64609;47.052;15.462;2023-02-22T16:48:19;17.50;47.70
75931;DHT22;64609;47.052;15.462;2023-02-22T16:50:46;17.50;48.10
75931;DHT22;64609;47.052;15.462;2023-02-22T16:53:14;17.40;48.20
75931;DHT22;64609;47.052;15.462;2023-02-22T16:55:43;17.30;48.30
75931;DHT22;64609;47.052;15.462;2023-02-22T16:58:10;17.20;48.60
75931;DHT22;64609;47.052;15.462;2023-02-22T17:00:36;17.10;48.60
75931;DHT22;64609;47.052;15.462;2023-02-22T17:03:03;17.00;48.70
75931;DHT22;64609;47.052;15.462;2023-02-22T17:05:33;16.90;48.90
75931;DHT22;64609;47.052;15.462;2023-02-22T17:08:00;16.80;49.00
75931;DHT22;64609;47.052;15.462;2023-02-22T17:10:26;16.70;49.20
75931;DHT22;64609;47.052;15.462;2023-02-22T17:12:53;16.70;49.50
75931;DHT22;64609;47.052;15.462;2023-02-22T17:15:31;16.60;49.70
75931;DHT22;64609;47.052;15.462;2023-02-22T17:18:00;16.50;50.00
75931;DHT22;64609;47.052;15.462;2023-02-22T17:20:29;16.50;50.10
75931;DHT22;64609;47.052;15.462;2023-02-22T17:23:03;16.40;50.20
75931;DHT22;64609;47.052;15.462;2023-02-22T17:25:44;16.40;50.20
75931;DHT22;64609;47.052;15.462;2023-02-22T17:28:10;16.40;50.40
75931;DHT22;64609;47.052;15.462;2023-02-22T17:30:36;16.30;50.50
75931;DHT22;64609;47.052;15.462;2023-02-22T17:33:04;16.20;50.80
75931;DHT22;64609;47.052;15.462;2023-02-22T17:35:32;16.10;50.80
75931;DHT22;64609;47.052;15.462;2023-02-22T17:37:59;16.10;51.00
75931;DHT22;64609;47.052;15.462;2023-02-22T17:40:26;16.10;51.10
75931;DHT22;64609;47.052;15.462;2023-02-22T17:42:52;16.00;51.20
75931;DHT22;64609;47.052;15.462;2023-02-22T17:45:21;16.00;51.20
75931;DHT22;64609;47.052;15.462;2023-02-22T17:47:48;16.00;51.10
75931;DHT22;64609;47.052;15.462;2023-02-22T17:50:15;15.90;51.20
75931;DHT22;64609;47.052;15.462;2023-02-22T17:52:42;15.90;51.30
75931;DHT22;64609;47.052;15.462;2023-02-22T17:55:09;15.90;51.40
75931;DHT22;64609;47.052;15.462;2023-02-22T17:57:35;15.80;51.40
75931;DHT22;64609;47.052;15.462;2023-02-22T18:00:03;15.80;51.50
75931;DHT22;64609;47.052;15.462;2023-02-22T18:02:43;15.80;51.60
75931;DHT22;64609;47.052;15.462;2023-02-22T18:05:11;15.80;51.60
75931;DHT22;64609;47.052;15.462;2023-02-22T18:07:41;15.70;51.60
75931;DHT22;64609;47.052;15.462;2023-02-22T18:10:07;15.60;51.70
75931;DHT22;64609;47.052;15.462;2023-02-22T18:12:40;15.60;51.80
75931;DHT22;64609;47.052;15.462;2023-02-22T18:15:07;15.60;51.90
75931;DHT22;64609;47.052;15.462;2023-02-22T18:17:36;15.50;52.10
75931;DHT22;64609;47.052;15.462;2023-02-22T18:20:05;15.50;52.30
75931;DHT22;64609;47.052;15.462;2023-02-22T18:22:39;15.40;52.40
75931;DHT22;64609;47.052;15.462;2023-02-22T18:25:11;15.40;52.40
75931;DHT22;64609;47.052;15.462;2023-02-22T18:27:39;15.40;52.60
75931;DHT22;64609;47.052;15.462;2023-02-22T18:30:08;15.30;52.50
75931;DHT22;64609;47.052;15.462;2023-02-22T18:32:36;15.30;52.70